PASN/SNP METAR and TAF weather

Enter ICAO airport designator
Station Type Date Time Source
PASN METAR 2021/09/24 02:53 UTC NOAA

PASN 240253Z AUTO 22004KT 10SM OVC048 06/00 A2996 RMK AO2 SLP147 T00610000 56016 TSNO


Station Type Date Time Source
PASN Decoded METAR 2021/09/24 02:53 UTC NOAA

ST PAUL ISLAND AIRPORT, AK, United States (PASN) 57-10N 170-13W 9M
Sep 23, 2021 - 10:53 PM EDT / 2021.09.24 0253 UTC
Wind: from the SW (220 degrees) at 5 MPH (4 KT):0
Visibility: 10 mile(s):0
Sky conditions: overcast
Temperature: 43.0 F (6.1 C)
Dew Point: 32.0 F (0.0 C)
Relative Humidity: 64%
Pressure (altimeter): 29.96 in. Hg (1014 hPa)
Pressure tendency: 0.05 inches (1.6 hPa) lower than three hours ago
ob: PASN 240253Z AUTO 22004KT 10SM OVC048 06/00 A2996 RMK AO2 SLP147 T00610000 56016 TSNO
cycle: 3

Station Type Date Time Source
PASN TAF 2021/09/23 18:22 UTC NOAA

TAF PASN 231720Z 2318/2418 36012KT P6SM FEW030 OVC035
FM232000 35009KT P6SM OVC030
FM240800 19004KT P6SM VCSH BKN040

Example: see airport list